Time;durP1;ratioP1;P1;durP2;ratioP2;P2;SDS_P1;SDS_P2;PMS_P1;PMS_P2;Temp;Humidity;BMP_temperature;BMP_pressure;BME280_temperature;BME280_humidity;BME280_pressure;Samples;Min_cycle;Max_cycle;Signal;HPM_P1;HPM_P2
2021/09/08 03:02:17;;;;;;;;;;;;;;;12.36;72.52;100072.06;5850901;23;19930;-94
2021/09/08 03:04:43;;;;;;;;;;;;;;;12.37;72.52;100068.19;4940588;28;20374;-93
2021/09/08 03:07:09;;;;;;;;;;;;;;;12.37;72.62;100063.50;4973875;28;19957;-91
2021/09/08 03:09:35;;;;;;;;;;;;;;;12.35;72.47;100063.00;4956781;28;20012;-89
2021/09/08 03:12:01;;;;;;;;;;;;;;;12.35;72.47;100070.41;4973502;28;19925;-92
2021/09/08 03:14:27;;;;;;;;;;;;;;;12.34;72.42;100068.78;4925921;28;20037;-94
2021/09/08 03:16:53;;;;;;;;;;;;;;;12.33;72.42;100061.69;4957746;28;20489;-89
2021/09/08 03:19:20;;;;;;;;;;;;;;;12.30;72.09;100071.34;4939947;28;19937;-92
2021/09/08 03:21:46;;;;;;;;;;;;;;;12.31;72.18;100074.88;4941080;28;19926;-89
2021/09/08 03:24:13;;;;;;;;;;;;;;;12.29;72.06;100072.47;4940944;28;20326;-89
2021/09/08 03:26:39;;;;;;;;;;;;;;;12.29;72.18;100069.72;4957486;28;19933;-88
2021/09/08 03:29:05;;;;;;;;;;;;;;;12.32;72.24;100071.03;4957561;28;19926;-90
2021/09/08 03:31:31;;;;;;;;;;;;;;;12.32;72.14;100062.81;4941315;28;19974;-92
2021/09/08 03:33:57;;;;;;;;;;;;;;;12.30;72.32;100065.03;4941113;28;19980;-93
2021/09/08 03:36:23;;;;;;;;;;;;;;;12.28;72.30;100057.09;4956689;28;19926;-93
2021/09/08 03:38:48;;;;;;;;;;;;;;;12.33;72.43;100059.75;4940941;28;19926;-90
2021/09/08 03:41:15;;;;;;;;;;;;;;;12.33;72.34;100057.03;4973234;28;19926;-90
2021/09/08 03:43:41;;;;;;;;;;;;;;;12.30;72.24;100060.38;4957041;28;19930;-91
2021/09/08 03:46:07;;;;;;;;;;;;;;;12.32;72.01;100058.16;4941446;28;20012;-92
2021/09/08 03:48:34;;;;;;;;;;;;;;;12.33;71.93;100053.47;4940568;28;19926;-90
2021/09/08 03:51:00;;;;;;;;;;;;;;;12.31;71.94;100059.25;4957192;28;19926;-92
2021/09/08 03:53:25;;;;;;;;;;;;;;;12.35;72.29;100054.78;4940910;28;20414;-90
2021/09/08 03:55:52;;;;;;;;;;;;;;;12.33;71.74;100058.94;4941324;28;19926;-90
2021/09/08 03:58:21;;;;;;;;;;;;;;;12.32;71.99;100062.81;4956785;28;19930;-91
2021/09/08 04:00:46;;;;;;;;;;;;;;;12.34;72.12;100058.63;4956869;28;19926;-92
2021/09/08 04:03:15;;;;;;;;;;;;;;;12.33;72.24;100061.69;4941001;28;20299;-93
2021/09/08 04:05:41;;;;;;;;;;;;;;;12.27;72.17;100060.97;4940540;28;19926;-93
2021/09/08 04:08:07;;;;;;;;;;;;;;;12.28;71.93;100056.31;4974026;28;19926;-91
2021/09/08 04:10:33;;;;;;;;;;;;;;;12.30;71.98;100063.09;4956288;28;19992;-95
2021/09/08 04:13:03;;;;;;;;;;;;;;;12.31;72.11;100058.44;4960056;28;19957;-90
2021/09/08 04:15:29;;;;;;;;;;;;;;;12.36;72.12;100058.34;4958740;28;19933;-93
2021/09/08 04:17:55;;;;;;;;;;;;;;;12.38;71.80;100067.88;4974500;28;20021;-96
2021/09/08 04:20:21;;;;;;;;;;;;;;;12.36;71.76;100061.88;4956597;28;19925;-83
2021/09/08 04:22:47;;;;;;;;;;;;;;;12.40;71.95;100054.66;4973240;28;20462;-83
2021/09/08 04:25:13;;;;;;;;;;;;;;;12.43;71.74;100054.06;4972931;28;19926;-84
2021/09/08 04:27:39;;;;;;;;;;;;;;;12.52;71.66;100067.88;4973186;28;19926;-84
2021/09/08 04:30:06;;;;;;;;;;;;;;;12.49;71.25;100064.94;4972793;28;19933;-84
2021/09/08 04:32:31;;;;;;;;;;;;;;;12.53;71.43;100065.94;4973099;28;19952;-83
2021/09/08 04:34:57;;;;;;;;;;;;;;;12.51;71.40;100057.19;4972070;28;19926;-82
2021/09/08 04:37:23;;;;;;;;;;;;;;;12.53;71.53;100065.94;4966376;28;20315;-82
2021/09/08 04:39:49;;;;;;;;;;;;;;;12.52;71.50;100059.63;4972879;28;20311;-84
2021/09/08 04:42:15;;;;;;;;;;;;;;;12.54;71.17;100064.81;4972497;28;20028;-84
2021/09/08 04:44:41;;;;;;;;;;;;;;;12.61;71.13;100056.97;4972430;28;20475;-83
2021/09/08 04:47:07;;;;;;;;;;;;;;;12.60;70.81;100060.84;4971149;28;19958;-77
2021/09/08 04:49:32;;;;;;;;;;;;;;;12.58;70.54;100063.06;4964079;28;20008;-81
2021/09/08 04:51:58;;;;;;;;;;;;;;;12.61;70.55;100059.69;4957966;28;20021;-82
2021/09/08 04:54:24;;;;;;;;;;;;;;;12.67;70.71;100056.53;4953169;28;20291;-82
2021/09/08 04:56:52;;;;;;;;;;;;;;;12.63;70.37;100052.00;4953310;28;20394;-81
2021/09/08 04:59:18;;;;;;;;;;;;;;;12.69;71.05;100064.47;4952962;28;19926;-86
2021/09/08 05:01:43;;;;;;;;;;;;;;;12.69;70.35;100056.25;4967200;28;19948;-85
2021/09/08 05:04:09;;;;;;;;;;;;;;;12.69;70.34;100057.06;4964565;28;19925;-86
2021/09/08 05:06:37;;;;;;;;;;;;;;;12.78;70.57;100059.88;4942273;28;19926;-87
2021/09/08 05:09:03;;;;;;;;;;;;;;;12.83;70.45;100058.94;4951587;28;19933;-86
2021/09/08 05:11:28;;;;;;;;;;;;;;;12.83;70.28;100054.25;4952148;28;20458;-87
2021/09/08 05:13:54;;;;;;;;;;;;;;;12.91;70.44;100056.28;4950200;28;19989;-86
2021/09/08 05:16:20;;;;;;;;;;;;;;;12.93;70.21;100048.53;4951692;28;19973;-86
2021/09/08 05:18:46;;;;;;;;;;;;;;;12.94;69.98;100052.91;4951669;28;20435;-87
2021/09/08 05:21:12;;;;;;;;;;;;;;;12.99;69.59;100042.94;4933969;28;20061;-86
2021/09/08 05:23:39;;;;;;;;;;;;;;;13.03;69.74;100043.94;4950943;28;19926;-86
2021/09/08 05:26:05;;;;;;;;;;;;;;;13.07;69.24;100050.41;4950878;28;19926;-86
2021/09/08 05:28:31;;;;;;;;;;;;;;;13.09;69.14;100040.75;4950259;28;20445;-87
2021/09/08 05:30:57;;;;;;;;;;;;;;;13.13;68.95;100044.50;4950454;28;20455;-86
2021/09/08 05:33:23;;;;;;;;;;;;;;;13.19;69.04;100038.88;4950127;28;20021;-86
2021/09/08 05:35:51;;;;;;;;;;;;;;;13.30;68.53;100046.56;4949645;28;19929;-86
2021/09/08 05:38:17;;;;;;;;;;;;;;;13.33;68.25;100045.94;4950624;28;20490;-86
2021/09/08 05:40:46;;;;;;;;;;;;;;;13.41;68.53;100049.91;4950310;28;19930;-86
2021/09/08 05:43:12;;;;;;;;;;;;;;;13.47;67.70;100040.38;4956352;28;19926;-86
2021/09/08 05:45:40;;;;;;;;;;;;;;;13.58;67.78;100041.75;4950018;29;19930;-87
2021/09/08 05:48:06;;;;;;;;;;;;;;;13.60;67.29;100038.66;4952636;28;19926;-86
2021/09/08 05:50:34;;;;;;;;;;;;;;;13.70;67.51;100035.66;4955032;28;20021;-87
2021/09/08 05:53:02;;;;;;;;;;;;;;;13.74;66.50;100036.66;4972126;28;20459;-86
2021/09/08 05:55:29;;;;;;;;;;;;;;;13.79;65.86;100039.25;4971991;28;20387;-86
2021/09/08 05:57:55;;;;;;;;;;;;;;;13.89;66.27;100042.84;4971977;28;20122;-84
2021/09/08 06:00:20;;;;;;;;;;;;;;;13.98;66.38;100038.22;4970708;28;20427;-84
2021/09/08 06:02:46;;;;;;;;;;;;;;;13.97;65.41;100039.31;4958289;28;20280;-84
2021/09/08 06:05:12;;;;;;;;;;;;;;;13.97;64.95;100033.81;4958539;28;19926;-82
2021/09/08 06:07:38;;;;;;;;;;;;;;;14.00;65.26;100033.19;4975879;28;19929;-84
2021/09/08 06:10:04;;;;;;;;;;;;;;;13.99;64.74;100037.06;4958493;28;19926;-85
2021/09/08 06:12:29;;;;;;;;;;;;;;;13.99;64.01;100026.06;4975648;28;19976;-85
2021/09/08 06:14:55;;;;;;;;;;;;;;;14.10;64.80;100032.88;4975790;28;19982;-86
2021/09/08 06:17:21;;;;;;;;;;;;;;;14.26;63.49;100031.31;4957989;28;19962;-85
2021/09/08 06:19:47;;;;;;;;;;;;;;;14.39;63.87;100031.50;4975479;28;19924;-86
2021/09/08 06:22:13;;;;;;;;;;;;;;;14.48;62.62;100026.84;4958105;28;19926;-85
2021/09/08 06:24:40;;;;;;;;;;;;;;;14.47;61.99;100025.19;4975608;28;19942;-84
2021/09/08 06:27:06;;;;;;;;;;;;;;;14.47;62.73;100026.03;4955906;28;19926;-85
2021/09/08 06:29:31;;;;;;;;;;;;;;;14.48;62.46;100037.84;4975284;28;19984;-86
2021/09/08 06:31:57;;;;;;;;;;;;;;;14.46;63.16;100031.84;4975322;28;19961;-93
2021/09/08 06:34:25;;;;;;;;;;;;;;;14.41;62.08;100026.50;4975313;28;19932;-86
2021/09/08 06:36:53;;;;;;;;;;;;;;;14.40;62.79;100033.94;4975142;28;20032;-84
2021/09/08 06:39:21;;;;;;;;;;;;;;;14.47;62.60;100030.72;4974949;28;20017;-85
2021/09/08 06:41:48;;;;;;;;;;;;;;;14.52;62.08;100016.84;4975005;28;19926;-86
2021/09/08 06:44:14;;;;;;;;;;;;;;;14.64;61.96;100021.72;4974993;28;19926;-86
2021/09/08 06:46:40;;;;;;;;;;;;;;;14.89;61.74;100020.09;4975232;28;20469;-86
2021/09/08 06:49:06;;;;;;;;;;;;;;;15.12;60.91;100013.25;4975272;28;19988;-86
2021/09/08 06:51:32;;;;;;;;;;;;;;;15.36;60.11;100014.66;4974904;28;19922;-92
2021/09/08 06:53:57;;;;;;;;;;;;;;;15.49;59.78;100021.94;4941725;29;20410;-93
2021/09/08 06:56:23;;;;;;;;;;;;;;;15.46;58.67;100020.66;4970389;28;19974;-92
2021/09/08 06:58:49;;;;;;;;;;;;;;;15.38;58.89;100006.91;4972999;28;19965;-82
2021/09/08 07:01:15;;;;;;;;;;;;;;;15.37;58.76;100014.38;4973903;28;19926;-83
2021/09/08 07:03:42;;;;;;;;;;;;;;;15.33;58.07;100015.31;4972471;28;20303;-83
2021/09/08 07:06:08;;;;;;;;;;;;;;;15.36;57.73;100020.97;4972420;28;20403;-83
2021/09/08 07:08:35;;;;;;;;;;;;;;;15.36;57.16;100020.97;4973083;28;19941;-83
2021/09/08 07:11:01;;;;;;;;;;;;;;;15.41;57.06;100020.81;4972554;28;19980;-86
2021/09/08 07:13:28;;;;;;;;;;;;;;;15.40;56.60;100019.22;4960814;28;20544;-83
2021/09/08 07:15:55;;;;;;;;;;;;;;;15.39;57.18;100022.28;4972968;28;20020;-82
2021/09/08 07:18:21;;;;;;;;;;;;;;;15.42;56.65;100016.13;4972793;28;20314;-83
2021/09/08 07:20:47;;;;;;;;;;;;;;;15.42;56.49;100016.13;4972466;28;19926;-84
2021/09/08 07:23:13;;;;;;;;;;;;;;;15.37;56.02;100013.56;4972201;28;20351;-91
2021/09/08 07:25:38;;;;;;;;;;;;;;;15.44;56.90;100019.38;4954560;28;19930;-84
2021/09/08 07:28:04;;;;;;;;;;;;;;;15.48;57.14;100014.81;4955747;28;19998;-82
2021/09/08 07:30:32;;;;;;;;;;;;;;;15.51;56.18;100001.19;4962850;28;19930;-83
2021/09/08 07:32:58;;;;;;;;;;;;;;;15.63;56.60;100005.19;4946052;28;19985;-83
2021/09/08 07:35:23;;;;;;;;;;;;;;;15.69;56.04;99992.88;4950657;28;20371;-84
2021/09/08 07:37:49;;;;;;;;;;;;;;;15.76;56.38;100003.38;4959375;28;19926;-92
2021/09/08 07:40:15;;;;;;;;;;;;;;;15.74;55.73;100007.28;4933521;28;20371;-92
2021/09/08 07:42:41;;;;;;;;;;;;;;;15.79;55.92;99998.03;4957858;28;20006;-82
2021/09/08 07:45:07;;;;;;;;;;;;;;;15.76;55.21;99995.94;4950198;29;19926;-83
2021/09/08 07:47:33;;;;;;;;;;;;;;;15.69;55.20;99992.88;4934443;29;20486;-83
2021/09/08 07:49:58;;;;;;;;;;;;;;;15.76;55.63;99992.38;4962428;28;19926;-84
2021/09/08 07:52:24;;;;;;;;;;;;;;;15.88;56.04;99985.00;4970655;28;20410;-83
2021/09/08 07:54:50;;;;;;;;;;;;;;;16.17;54.56;99994.44;4968811;28;19985;-83
2021/09/08 07:57:17;;;;;;;;;;;;;;;16.09;55.31;99992.53;4952714;28;20291;-83
2021/09/08 07:59:43;;;;;;;;;;;;;;;16.03;54.67;100002.94;4968638;28;19926;-83
2021/09/08 08:02:10;;;;;;;;;;;;;;;15.97;54.68;99996.00;4969306;28;19989;-83
2021/09/08 08:04:36;;;;;;;;;;;;;;;15.98;55.45;99994.84;4967358;28;19926;-80
2021/09/08 08:07:01;;;;;;;;;;;;;;;15.97;54.67;99991.28;4968204;28;19933;-80
2021/09/08 08:09:27;;;;;;;;;;;;;;;15.90;54.79;99981.94;4967726;28;19972;-79
2021/09/08 08:11:53;;;;;;;;;;;;;;;15.92;56.15;99988.72;4968126;28;19926;-79
2021/09/08 08:14:19;;;;;;;;;;;;;;;15.96;56.21;99994.41;4967348;28;20426;-79
2021/09/08 08:16:45;;;;;;;;;;;;;;;15.89;54.49;99988.56;4968229;28;20049;-79
2021/09/08 08:19:10;;;;;;;;;;;;;;;15.93;54.88;99992.31;4966930;28;19930;-88
2021/09/08 08:21:37;;;;;;;;;;;;;;;15.86;55.90;99992.81;4966872;28;19926;-88
2021/09/08 08:24:03;;;;;;;;;;;;;;;16.03;55.45;99996.63;4966319;28;19933;-87
2021/09/08 08:26:29;;;;;;;;;;;;;;;16.06;54.77;99991.25;4949760;28;19922;-88
2021/09/08 08:28:55;;;;;;;;;;;;;;;16.14;54.99;100001.41;4966318;28;19941;-86
2021/09/08 08:31:22;;;;;;;;;;;;;;;16.32;53.91;99987.50;4950247;28;20485;-86
2021/09/08 08:33:49;;;;;;;;;;;;;;;16.31;55.88;99988.66;4966003;28;19922;-87
2021/09/08 08:36:15;;;;;;;;;;;;;;;16.21;52.37;99987.91;4956195;28;19965;-81
2021/09/08 08:38:42;;;;;;;;;;;;;;;15.84;52.28;99988.78;4963620;28;19977;-82
2021/09/08 08:41:08;;;;;;;;;;;;;;;15.61;52.50;99991.75;4953851;29;19989;-84
2021/09/08 08:43:34;;;;;;;;;;;;;;;15.43;52.91;99976.41;4953820;29;19930;-83
2021/09/08 08:46:02;;;;;;;;;;;;;;;15.54;53.86;99985.13;4953582;29;19992;-82
2021/09/08 08:48:27;;;;;;;;;;;;;;;15.57;54.46;99985.28;4954035;29;19926;-83
2021/09/08 08:50:54;;;;;;;;;;;;;;;15.66;54.16;99980.59;4954782;29;19926;-83
2021/09/08 08:53:19;;;;;;;;;;;;;;;15.66;53.64;99972.31;4954972;29;19965;-88
2021/09/08 08:55:45;;;;;;;;;;;;;;;15.66;52.89;99977.84;4955502;29;20337;-94
2021/09/08 08:58:11;;;;;;;;;;;;;;;15.73;52.78;99980.06;4924475;28;20025;-90
2021/09/08 09:00:40;;;;;;;;;;;;;;;15.81;51.62;99973.69;4976034;28;19926;-90
2021/09/08 09:03:06;;;;;;;;;;;;;;;15.82;51.60;99978.06;4975332;28;19926;-92
2021/09/08 09:05:38;;;;;;;;;;;;;;;15.83;52.07;99974.19;4956419;28;19926;-90
2021/09/08 09:08:06;;;;;;;;;;;;;;;15.84;52.52;99975.00;4955787;28;19926;-90
2021/09/08 09:10:32;;;;;;;;;;;;;;;15.62;52.30;99976.03;4956452;28;19926;-92
2021/09/08 09:12:59;;;;;;;;;;;;;;;15.55;53.54;99973.78;4933050;28;19933;-91
2021/09/08 09:15:25;;;;;;;;;;;;;;;15.44;53.71;99965.06;4972415;28;19926;-91
2021/09/08 09:17:51;;;;;;;;;;;;;;;15.35;54.20;99967.03;4947489;28;19983;-89
2021/09/08 09:20:19;;;;;;;;;;;;;;;15.36;55.13;99973.34;4938659;28;19933;-90
2021/09/08 09:22:50;;;;;;;;;;;;;;;15.27;55.01;99971.44;4967341;28;20351;-90
2021/09/08 09:25:24;;;;;;;;;;;;;;;15.25;55.57;99968.19;4975265;28;20374;-89
2021/09/08 09:27:54;;;;;;;;;;;;;;;15.19;57.05;99968.69;4968176;28;19926;-91
2021/09/08 09:30:22;;;;;;;;;;;;;;;15.12;56.95;99974.72;4975196;28;19977;-90
2021/09/08 09:32:49;;;;;;;;;;;;;;;15.08;57.19;99965.50;4934504;28;19926;-89
2021/09/08 09:35:20;;;;;;;;;;;;;;;15.08;57.68;99962.72;4974497;28;19930;-89
2021/09/08 09:37:48;;;;;;;;;;;;;;;15.05;57.25;99955.13;4950121;28;19937;-90
2021/09/08 09:40:16;;;;;;;;;;;;;;;14.98;57.75;99952.88;4957046;28;19926;-90
2021/09/08 09:42:44;;;;;;;;;;;;;;;14.93;57.57;99957.72;4933793;28;20013;-91
2021/09/08 09:45:12;;;;;;;;;;;;;;;14.93;58.35;99960.47;4956323;28;19930;-91
2021/09/08 09:47:40;;;;;;;;;;;;;;;14.94;58.37;99946.41;4949418;28;20482;-90
2021/09/08 09:50:08;;;;;;;;;;;;;;;14.86;58.87;99954.66;4973535;28;20384;-91
2021/09/08 09:52:34;;;;;;;;;;;;;;;14.79;59.19;99944.16;4966325;28;19936;-91
2021/09/08 09:55:01;;;;;;;;;;;;;;;14.72;59.99;99952.91;4972769;28;20296;-90
2021/09/08 09:57:27;;;;;;;;;;;;;;;14.73;60.65;99942.69;4965509;28;19930;-90
2021/09/08 09:59:53;;;;;;;;;;;;;;;14.78;59.88;99937.84;4972578;28;19933;-89
2021/09/08 10:02:19;;;;;;;;;;;;;;;14.78;58.78;99942.53;4947414;28;20384;-90
2021/09/08 10:04:48;;;;;;;;;;;;;;;14.80;58.55;99926.50;4971978;28;19973;-91
2021/09/08 10:07:17;;;;;;;;;;;;;;;14.78;58.33;99937.84;4964708;28;19928;-90
2021/09/08 10:09:43;;;;;;;;;;;;;;;14.81;58.40;99936.38;4971677;28;19933;-89
2021/09/08 10:12:10;;;;;;;;;;;;;;;14.79;58.21;99924.88;4946536;28;19941;-90
2021/09/08 10:14:36;;;;;;;;;;;;;;;14.84;58.35;99930.22;4971242;28;19926;-90
2021/09/08 10:17:03;;;;;;;;;;;;;;;14.83;58.25;99920.34;4963468;28;19932;-89
2021/09/08 10:19:31;;;;;;;;;;;;;;;14.89;58.75;99915.47;4970613;28;19926;-90
2021/09/08 10:22:07;;;;;;;;;;;;;;;14.89;57.88;99915.47;4963656;28;19926;-90
2021/09/08 10:24:34;;;;;;;;;;;;;;;14.90;58.10;99911.56;4970084;28;20391;-91
2021/09/08 10:27:01;;;;;;;;;;;;;;;14.91;58.64;99913.22;4962445;28;19985;-89
2021/09/08 10:29:28;;;;;;;;;;;;;;;14.90;59.19;99911.56;4952939;28;19933;-91
2021/09/08 10:31:58;;;;;;;;;;;;;;;14.94;58.79;99899.59;4962348;28;19957;-89
2021/09/08 10:34:25;;;;;;;;;;;;;;;14.92;57.88;99899.13;4968185;28;20276;-90
2021/09/08 10:36:51;;;;;;;;;;;;;;;14.94;58.12;99896.06;4962028;28;19930;-90
2021/09/08 10:39:20;;;;;;;;;;;;;;;14.91;57.61;99896.69;4968875;28;20303;-89
2021/09/08 10:41:48;;;;;;;;;;;;;;;14.95;58.08;99892.94;4961494;28;19926;-89
2021/09/08 10:44:16;;;;;;;;;;;;;;;14.97;58.92;99887.94;4968040;28;20430;-90
2021/09/08 10:47:01;;;;;;;;;;;;;;;14.94;58.56;99880.34;4960681;28;19926;-89
2021/09/08 10:49:38;;;;;;;;;;;;;;;14.98;58.70;99881.28;4967799;28;19926;-89
2021/09/08 10:52:15;;;;;;;;;;;;;;;14.97;58.59;99882.44;4959881;28;19948;-90
2021/09/08 10:54:56;;;;;;;;;;;;;;;14.95;58.18;99867.38;4967433;28;19930;-89
2021/09/08 10:57:43;;;;;;;;;;;;;;;14.98;58.27;99867.53;4960285;28;19933;-90
2021/09/08 11:00:29;;;;;;;;;;;;;;;14.99;58.21;99871.88;4950178;28;20411;-89
2021/09/08 11:02:57;;;;;;;;;;;;;;;15.04;58.63;99865.41;4938294;29;19962;-91
2021/09/08 11:05:23;;;;;;;;;;;;;;;15.06;58.44;99856.81;4947600;28;19926;-90
2021/09/08 11:07:51;;;;;;;;;;;;;;;15.26;58.30;99861.56;4940788;28;20392;-93
2021/09/08 11:10:24;;;;;;;;;;;;;;;15.51;58.02;99866.16;4933089;29;19926;-92
2021/09/08 11:12:56;;;;;;;;;;;;;;;15.63;57.16;99840.66;4910751;29;20404;-88
2021/09/08 11:15:33;;;;;;;;;;;;;;;15.69;57.28;99850.38;4947085;29;19933;-85
2021/09/08 11:17:59;;;;;;;;;;;;;;;15.87;56.73;99848.31;4938013;29;20331;-89
2021/09/08 11:20:25;;;;;;;;;;;;;;;16.03;56.44;99845.75;4944684;29;19932;-88
2021/09/08 11:23:02;;;;;;;;;;;;;;;16.05;56.41;99832.41;4925698;29;20003;-94
2021/09/08 11:25:34;;;;;;;;;;;;;;;16.21;55.61;99838.13;4932595;29;19930;-95
2021/09/08 11:28:01;;;;;;;;;;;;;;;16.19;55.45;99840.41;4928007;29;19976;-94
2021/09/08 11:30:38;;;;;;;;;;;;;;;16.13;55.63;99831.56;4932973;29;19926;-92
2021/09/08 11:33:12;;;;;;;;;;;;;;;16.12;55.96;99824.41;4945013;29;20410;-95
2021/09/08 11:35:47;;;;;;;;;;;;;;;16.14;55.28;99813.84;4934031;29;20028;-93
2021/09/08 11:38:37;;;;;;;;;;;;;;;15.92;55.93;99805.91;4946275;29;20020;-94
2021/09/08 11:41:07;;;;;;;;;;;;;;;15.66;56.87;99800.56;4947069;28;20138;-90
2021/09/08 11:43:32;;;;;;;;;;;;;;;15.53;57.29;99810.72;4961639;28;19918;-96
2021/09/08 11:46:27;;;;;;;;;;;;;;;15.45;57.84;99798.59;4928696;29;19978;-89
2021/09/08 11:48:53;;;;;;;;;;;;;;;15.41;58.50;99802.38;4935110;28;19934;-85
2021/09/08 11:51:20;;;;;;;;;;;;;;;15.42;58.52;99804.78;4935296;28;20855;-84
2021/09/08 11:53:56;;;;;;;;;;;;;;;15.41;58.30;99808.69;4942556;28;19926;-85
2021/09/08 11:56:24;;;;;;;;;;;;;;;15.43;58.78;99802.81;4919704;28;20782;-91
2021/09/08 11:58:54;;;;;;;;;;;;;;;15.37;58.51;99807.75;4937667;28;19926;-88
2021/09/08 12:01:20;;;;;;;;;;;;;;;15.39;58.72;99805.44;4954311;28;20307;-88
2021/09/08 12:03:47;;;;;;;;;;;;;;;15.32;58.60;99807.13;4968577;28;20024;-87
2021/09/08 12:06:17;;;;;;;;;;;;;;;15.30;58.71;99810.22;4973484;28;19929;-87
2021/09/08 12:08:59;;;;;;;;;;;;;;;15.29;58.96;99814.09;4973353;28;19926;-87
2021/09/08 12:11:32;;;;;;;;;;;;;;;15.30;58.93;99812.97;4972148;28;20395;-86
2021/09/08 12:14:16;;;;;;;;;;;;;;;15.30;58.90;99803.88;4973264;28;20372;-86
2021/09/08 12:16:42;;;;;;;;;;;;;;;15.41;59.02;99814.19;4936748;29;19974;-86
2021/09/08 12:19:11;;;;;;;;;;;;;;;15.55;58.91;99808.44;4936987;29;19931;-89
2021/09/08 12:21:37;;;;;;;;;;;;;;;15.67;58.78;99803.03;4937151;29;20307;-88
2021/09/08 12:24:18;;;;;;;;;;;;;;;15.69;57.81;99806.28;4960197;28;19926;-88
2021/09/08 12:26:44;;;;;;;;;;;;;;;15.85;58.15;99803.72;4973176;28;20369;-87
2021/09/08 12:29:10;;;;;;;;;;;;;;;15.88;57.35;99802.22;4973338;28;19925;-87
2021/09/08 12:31:49;;;;;;;;;;;;;;;15.84;57.01;99809.56;4956016;28;20354;-88
2021/09/08 12:34:15;;;;;;;;;;;;;;;15.77;56.92;99812.88;4955464;28;19922;-86
2021/09/08 12:36:42;;;;;;;;;;;;;;;15.83;58.19;99802.44;4966995;28;19984;-87
2021/09/08 12:39:15;;;;;;;;;;;;;;;15.92;57.44;99805.91;4973070;28;19922;-86
2021/09/08 12:41:51;;;;;;;;;;;;;;;15.90;56.95;99797.19;4973147;28;19937;-88
2021/09/08 12:44:24;;;;;;;;;;;;;;;15.88;57.25;99793.97;4972925;28;19930;-87
2021/09/08 12:46:50;;;;;;;;;;;;;;;15.83;57.31;99806.00;4955724;28;19926;-87
2021/09/08 12:49:17;;;;;;;;;;;;;;;15.86;58.10;99799.00;4956524;28;19926;-86
2021/09/08 12:51:44;;;;;;;;;;;;;;;15.84;57.96;99793.84;4945030;29;19934;-88
2021/09/08 12:54:13;;;;;;;;;;;;;;;15.86;57.60;99793.47;4936597;29;20097;-88
2021/09/08 12:56:40;;;;;;;;;;;;;;;15.90;57.66;99792.50;4937491;29;19934;-87
2021/09/08 12:59:06;;;;;;;;;;;;;;;15.95;57.71;99788.72;4957721;29;19926;-88
2021/09/08 13:01:31;;;;;;;;;;;;;;;15.88;57.29;99780.97;4957436;29;20032;-88
2021/09/08 13:03:57;;;;;;;;;;;;;;;15.87;57.96;99778.56;4957449;29;20020;-86
2021/09/08 13:06:23;;;;;;;;;;;;;;;15.90;57.85;99777.91;4940352;29;19926;-91
2021/09/08 13:08:49;;;;;;;;;;;;;;;15.89;58.21;99779.03;4956534;28;19942;-84
2021/09/08 13:11:15;;;;;;;;;;;;;;;15.80;57.51;99772.78;4959091;28;20085;-86
2021/09/08 13:13:41;;;;;;;;;;;;;;;15.80;58.23;99772.78;4976370;28;20036;-85
2021/09/08 13:16:07;;;;;;;;;;;;;;;15.78;58.41;99769.56;4976457;28;20414;-86
2021/09/08 13:18:33;;;;;;;;;;;;;;;15.77;58.72;99766.00;4976446;28;19949;-86
2021/09/08 13:20:59;;;;;;;;;;;;;;;15.76;58.39;99774.59;4975924;28;19933;-85
2021/09/08 13:23:25;;;;;;;;;;;;;;;15.78;58.33;99766.81;4976267;28;20375;-86
2021/09/08 13:25:52;;;;;;;;;;;;;;;15.82;58.46;99763.03;4976192;28;19961;-84
2021/09/08 13:28:18;;;;;;;;;;;;;;;15.85;58.65;99770.63;4976549;28;20028;-90
2021/09/08 13:30:44;;;;;;;;;;;;;;;15.82;58.42;99762.22;4939862;29;20384;-90
2021/09/08 13:33:09;;;;;;;;;;;;;;;15.84;58.82;99771.78;4955645;28;19933;-89
2021/09/08 13:35:35;;;;;;;;;;;;;;;15.88;58.87;99774.66;4941914;28;19926;-89
2021/09/08 13:38:02;;;;;;;;;;;;;;;15.85;58.68;99770.63;4943174;28;20351;-90
2021/09/08 13:40:28;;;;;;;;;;;;;;;15.90;58.82;99762.16;4958395;28;19950;-88
2021/09/08 13:42:56;;;;;;;;;;;;;;;15.96;58.40;99769.09;4943007;28;20391;-90
2021/09/08 13:45:23;;;;;;;;;;;;;;;15.93;58.07;99761.50;4959040;28;19960;-88
2021/09/08 13:47:49;;;;;;;;;;;;;;;15.94;58.62;99767.81;4942911;28;19978;-90
2021/09/08 13:50:14;;;;;;;;;;;;;;;15.95;58.62;99769.41;4974890;28;19926;-90
2021/09/08 13:52:43;;;;;;;;;;;;;;;15.96;58.51;99760.81;4973824;28;20264;-88
2021/09/08 13:55:11;;;;;;;;;;;;;;;16.04;58.92;99752.78;4957418;28;19933;-86
2021/09/08 13:57:37;;;;;;;;;;;;;;;16.03;58.60;99764.97;4960095;28;19993;-92
2021/09/08 14:00:03;;;;;;;;;;;;;;;16.03;58.62;99757.50;4946328;28;19922;-94
2021/09/08 14:02:33;;;;;;;;;;;;;;;16.04;58.71;99758.31;4959544;29;20392;-96
2021/09/08 14:04:59;;;;;;;;;;;;;;;16.02;59.23;99758.63;4929322;29;19933;-93
2021/09/08 14:07:27;;;;;;;;;;;;;;;16.06;60.35;99761.50;4956885;28;19926;-91
2021/09/08 14:09:53;;;;;;;;;;;;;;;16.00;58.86;99738.88;4924147;29;19938;-88
2021/09/08 14:12:19;;;;;;;;;;;;;;;16.06;59.25;99759.59;4955021;29;20027;-89
2021/09/08 14:14:46;;;;;;;;;;;;;;;16.03;59.51;99763.03;4956620;29;19926;-94
2021/09/08 14:17:12;;;;;;;;;;;;;;;15.99;59.67;99770.34;4921004;29;19926;-88
2021/09/08 14:19:39;;;;;;;;;;;;;;;15.94;59.26;99774.13;4966383;28;19930;-88
2021/09/08 14:22:04;;;;;;;;;;;;;;;15.93;59.60;99763.44;4939016;29;19926;-87
2021/09/08 14:24:30;;;;;;;;;;;;;;;15.91;59.83;99766.53;4939069;29;19926;-90
2021/09/08 14:26:56;;;;;;;;;;;;;;;15.87;59.96;99770.31;4941800;29;20025;-96
2021/09/08 14:29:22;;;;;;;;;;;;;;;15.84;60.05;99762.69;4941536;29;19926;-90
2021/09/08 14:31:49;;;;;;;;;;;;;;;15.81;60.03;99760.63;4924378;29;20298;-94
2021/09/08 14:34:15;;;;;;;;;;;;;;;15.76;59.94;99761.63;4939870;29;19927;-91
2021/09/08 14:36:41;;;;;;;;;;;;;;;15.76;60.14;99763.56;4924013;29;19941;-90
2021/09/08 14:39:07;;;;;;;;;;;;;;;15.75;59.82;99760.00;4923832;29;20431;-91
2021/09/08 14:41:33;;;;;;;;;;;;;;;15.75;60.30;99754.50;4940000;29;19927;-93
2021/09/08 14:43:59;;;;;;;;;;;;;;;15.72;60.12;99755.97;4924685;29;19927;-91
2021/09/08 14:46:25;;;;;;;;;;;;;;;15.67;60.17;99760.91;4920627;29;19997;-92
2021/09/08 14:48:51;;;;;;;;;;;;;;;15.63;60.50;99766.25;4920498;29;19934;-96
2021/09/08 14:51:17;;;;;;;;;;;;;;;15.59;60.96;99765.28;4940226;29;20467;-94
2021/09/08 14:53:44;;;;;;;;;;;;;;;15.57;61.22;99758.50;4939639;29;19976;-91
2021/09/08 14:56:10;;;;;;;;;;;;;;;15.49;61.59;99755.47;4955984;29;19926;-95
2021/09/08 14:58:39;;;;;;;;;;;;;;;15.49;61.85;99768.44;4940057;29;19926;-87
2021/09/08 15:01:06;;;;;;;;;;;;;;;15.47;62.21;99765.22;4956497;28;20387;-91
2021/09/08 15:03:34;;;;;;;;;;;;;;;15.43;62.08;99764.25;4954185;29;19930;-90
2021/09/08 15:06:00;;;;;;;;;;;;;;;15.40;62.53;99762.19;4971125;28;19933;-90
2021/09/08 15:08:26;;;;;;;;;;;;;;;15.34;62.40;99766.28;4968771;28;19958;-88
2021/09/08 15:11:25;;;;;;;;;;;;;;;15.32;62.39;99757.53;4957314;28;19933;-96
2021/09/08 15:14:13;;;;;;;;;;;;;;;15.31;62.64;99766.94;4941932;29;19927;-91
2021/09/08 15:16:40;;;;;;;;;;;;;;;15.27;62.69;99767.63;4922497;29;19926;-89
2021/09/08 15:19:06;;;;;;;;;;;;;;;15.22;63.43;99770.53;4922186;29;19926;-92
2021/09/08 15:21:33;;;;;;;;;;;;;;;15.16;64.02;99766.38;4922567;29;19926;-88
2021/09/08 15:23:59;;;;;;;;;;;;;;;15.12;64.63;99764.63;4954495;29;19982;-89
2021/09/08 15:26:25;;;;;;;;;;;;;;;15.10;64.75;99767.72;4938444;29;19923;-92
2021/09/08 15:28:51;;;;;;;;;;;;;;;15.03;65.04;99757.22;4954765;29;19926;-94
2021/09/08 15:31:17;;;;;;;;;;;;;;;15.06;65.54;99746.66;4922787;29;19926;-91
2021/09/08 15:33:46;;;;;;;;;;;;;;;14.96;65.63;99748.66;4954917;29;20013;-93
2021/09/08 15:36:12;;;;;;;;;;;;;;;14.97;66.07;99741.22;4922154;29;19969;-93
2021/09/08 15:38:38;;;;;;;;;;;;;;;14.90;66.33;99740.91;4955025;29;20040;-92
2021/09/08 15:41:04;;;;;;;;;;;;;;;14.84;66.70;99734.81;4937296;29;19927;-93
2021/09/08 15:43:30;;;;;;;;;;;;;;;14.84;67.14;99742.25;4923051;29;19934;-91
2021/09/08 15:46:03;;;;;;;;;;;;;;;14.75;67.48;99739.53;4930853;29;19937;-90